createdAt,value
2022-07-29T00:00:18.577Z,21.3
2022-07-29T00:01:20.064Z,21.22
2022-07-29T00:02:22.071Z,21.13
2022-07-29T00:03:23.714Z,21.07
2022-07-29T00:04:25.348Z,21.02
2022-07-29T00:05:27.020Z,20.96
2022-07-29T00:06:28.862Z,20.92
2022-07-29T00:07:30.455Z,20.87
2022-07-29T00:08:32.346Z,20.83
2022-07-29T00:09:34.125Z,20.79
2022-07-29T00:10:35.944Z,20.74
2022-07-29T00:11:37.657Z,20.7
2022-07-29T00:12:39.394Z,20.65
2022-07-29T00:13:41.050Z,20.59
2022-07-29T00:14:42.767Z,20.54
2022-07-29T00:15:44.569Z,20.5
2022-07-29T00:16:46.343Z,20.45
2022-07-29T00:17:47.950Z,20.41
2022-07-29T00:18:49.652Z,20.36
2022-07-29T00:19:51.577Z,20.33
2022-07-29T00:20:53.321Z,20.29
2022-07-29T00:21:54.968Z,20.25
2022-07-29T00:22:56.689Z,20.2
2022-07-29T00:23:58.576Z,20.17
2022-07-29T00:25:00.145Z,20.15
2022-07-29T00:26:02.012Z,20.12
2022-07-29T00:27:03.613Z,20.09
2022-07-29T00:28:05.397Z,20.07
2022-07-29T00:29:32.986Z,20.05
2022-07-29T00:30:08.946Z,20.03
2022-07-29T00:31:17.641Z,20.02
2022-07-29T00:32:12.235Z,20
2022-07-29T00:33:14.025Z,20
2022-07-29T00:34:16.074Z,20
2022-07-29T00:35:17.682Z,20
2022-07-29T00:36:19.290Z,20
2022-07-29T00:37:20.886Z,20
2022-07-29T00:38:22.764Z,20
2022-07-29T00:39:24.422Z,19.99
2022-07-29T00:40:26.029Z,19.99
2022-07-29T00:41:27.894Z,19.99
2022-07-29T00:42:29.626Z,19.98
2022-07-29T00:43:31.279Z,19.96
2022-07-29T00:44:33.028Z,19.94
2022-07-29T00:45:34.775Z,19.9
2022-07-29T00:46:36.569Z,19.85
2022-07-29T00:47:38.314Z,19.81
2022-07-29T00:48:39.931Z,19.76
2022-07-29T00:49:41.769Z,19.7
2022-07-29T00:50:43.409Z,19.67
2022-07-29T00:51:45.096Z,19.65
2022-07-29T00:52:46.687Z,19.63
2022-07-29T00:53:48.771Z,19.61
2022-07-29T00:54:50.318Z,19.6
2022-07-29T00:55:52.375Z,19.57
2022-07-29T00:56:53.812Z,19.55
2022-07-29T00:57:55.573Z,19.53
2022-07-29T00:58:57.293Z,19.51
2022-07-29T00:59:59.096Z,19.46
2022-07-29T01:01:00.769Z,19.42
2022-07-29T01:02:02.841Z,19.38
2022-07-29T01:03:04.612Z,19.35
2022-07-29T01:04:06.023Z,19.31
2022-07-29T01:05:07.819Z,19.26
2022-07-29T01:06:24.296Z,19.21
2022-07-29T01:07:11.304Z,19.16
2022-07-29T01:08:12.946Z,19.12
2022-07-29T01:09:14.563Z,19.07
2022-07-29T01:10:16.399Z,19.03
2022-07-29T01:11:18.173Z,18.99
2022-07-29T01:12:19.928Z,18.92
2022-07-29T01:13:21.430Z,18.88
2022-07-29T01:14:23.280Z,18.84
2022-07-29T01:15:24.968Z,18.79
2022-07-29T01:16:26.855Z,18.75
2022-07-29T01:17:28.475Z,18.7
2022-07-29T01:18:30.383Z,18.65
2022-07-29T01:19:31.943Z,18.59
2022-07-29T01:20:33.861Z,18.54
2022-07-29T01:21:35.478Z,18.47
2022-07-29T01:22:37.359Z,18.42
2022-07-29T01:23:39.327Z,18.35
2022-07-29T01:24:40.781Z,18.28
2022-07-29T01:25:42.685Z,18.2
2022-07-29T01:26:44.219Z,18.12
2022-07-29T01:27:45.958Z,18.05
2022-07-29T01:28:47.670Z,17.97
2022-07-29T01:29:49.431Z,17.88
2022-07-29T01:30:51.078Z,17.8
2022-07-29T01:31:59.041Z,17.71
2022-07-29T01:32:54.659Z,17.59
2022-07-29T01:33:56.180Z,17.5
2022-07-29T01:34:57.842Z,17.39
2022-07-29T01:35:59.823Z,17.28
2022-07-29T01:37:01.572Z,17.17
2022-07-29T01:38:03.244Z,17.07
2022-07-29T01:39:04.933Z,16.97
2022-07-29T01:40:06.718Z,16.87
2022-07-29T01:41:08.455Z,16.78
2022-07-29T01:42:10.313Z,16.69
2022-07-29T01:43:11.863Z,16.59
2022-07-29T01:44:13.987Z,16.49
2022-07-29T01:45:15.349Z,16.41
2022-07-29T01:46:17.088Z,16.32
2022-07-29T01:47:18.754Z,16.24
2022-07-29T01:48:20.469Z,16.16
2022-07-29T01:49:22.469Z,16.09
2022-07-29T01:50:24.036Z,16.01
2022-07-29T01:51:25.786Z,15.93
2022-07-29T01:52:27.565Z,15.87
2022-07-29T01:53:29.342Z,15.79
2022-07-29T01:54:30.944Z,15.73
2022-07-29T01:55:32.701Z,15.68
2022-07-29T01:56:35.714Z,15.62
2022-07-29T01:57:36.215Z,15.56
2022-07-29T01:58:37.961Z,15.52
2022-07-29T01:59:39.693Z,15.47
2022-07-29T02:00:43.841Z,15.42
2022-07-29T02:01:43.660Z,15.37
2022-07-29T02:02:44.987Z,15.33
2022-07-29T02:03:46.913Z,15.27
2022-07-29T02:04:48.698Z,15.24
2022-07-29T02:05:50.601Z,15.21
2022-07-29T02:06:52.039Z,15.19
2022-07-29T02:07:53.740Z,15.15
2022-07-29T02:08:55.660Z,15.13
2022-07-29T02:09:56.955Z,15.11
2022-07-29T02:10:59.466Z,15.07
2022-07-29T02:12:00.999Z,15.06
2022-07-29T02:13:02.182Z,15.03
2022-07-29T02:14:03.919Z,15.02
2022-07-29T02:15:05.502Z,15
2022-07-29T02:16:07.488Z,14.98
2022-07-29T02:17:09.064Z,14.97
2022-07-29T02:18:10.808Z,14.94
2022-07-29T02:19:12.407Z,14.91
2022-07-29T02:20:14.294Z,14.9
2022-07-29T02:21:15.980Z,14.88
2022-07-29T02:22:17.636Z,14.87
2022-07-29T02:23:19.764Z,14.84
2022-07-29T02:24:21.135Z,14.82
2022-07-29T02:25:22.995Z,14.8
2022-07-29T02:26:24.746Z,14.78
2022-07-29T02:27:26.404Z,14.77
2022-07-29T02:28:28.225Z,14.74
2022-07-29T02:29:29.948Z,14.72
2022-07-29T02:30:32.160Z,14.73
2022-07-29T02:31:33.674Z,14.71
2022-07-29T02:32:35.554Z,14.69
2022-07-29T02:33:37.212Z,14.68
2022-07-29T02:34:38.630Z,14.66
2022-07-29T02:35:40.671Z,14.65
2022-07-29T02:36:42.546Z,14.63
2022-07-29T02:37:44.337Z,14.62
2022-07-29T02:38:45.976Z,14.61
2022-07-29T02:39:47.289Z,14.6
2022-07-29T02:40:49.831Z,14.6
2022-07-29T02:41:51.200Z,14.59
2022-07-29T02:42:52.687Z,14.58
2022-07-29T02:43:54.234Z,14.56
2022-07-29T02:44:55.943Z,14.55
2022-07-29T02:45:57.777Z,14.54
2022-07-29T02:47:00.184Z,14.54
2022-07-29T02:48:01.267Z,14.52
2022-07-29T02:49:03.239Z,14.53
2022-07-29T02:50:04.861Z,14.53
2022-07-29T02:51:06.689Z,14.55
2022-07-29T02:52:08.163Z,14.58
2022-07-29T02:53:10.535Z,14.59
2022-07-29T02:54:11.876Z,14.61
2022-07-29T02:55:13.653Z,14.63
2022-07-29T02:56:14.886Z,14.63
2022-07-29T02:57:16.685Z,14.65
2022-07-29T02:58:18.509Z,14.67
2022-07-29T02:59:20.295Z,14.67
2022-07-29T03:00:21.839Z,14.71
2022-07-29T03:01:23.647Z,14.71
2022-07-29T03:02:25.343Z,14.73
2022-07-29T03:03:27.154Z,14.76
2022-07-29T03:04:28.916Z,14.78
2022-07-29T03:05:30.587Z,14.78
2022-07-29T03:06:37.914Z,14.81
2022-07-29T03:07:34.148Z,14.86
2022-07-29T03:08:35.890Z,14.89
2022-07-29T03:09:37.662Z,14.92
2022-07-29T03:10:39.478Z,14.92
2022-07-29T03:11:49.294Z,14.94
2022-07-29T03:12:42.785Z,14.97
2022-07-29T03:13:44.519Z,14.99
2022-07-29T03:14:46.275Z,15.01
2022-07-29T03:15:48.043Z,15.06
2022-07-29T03:16:49.919Z,15.08
2022-07-29T03:17:51.413Z,15.09
2022-07-29T03:18:53.170Z,15.12
2022-07-29T03:19:54.865Z,15.13
2022-07-29T03:20:56.679Z,15.17
2022-07-29T03:21:58.435Z,15.18
2022-07-29T03:23:00.088Z,15.2
2022-07-29T03:24:03.564Z,15.24
2022-07-29T03:25:03.512Z,15.25
2022-07-29T03:26:10.137Z,15.26
2022-07-29T03:27:07.074Z,15.28
2022-07-29T03:28:08.723Z,15.31
2022-07-29T03:29:10.697Z,15.31
2022-07-29T03:30:12.174Z,15.31
2022-07-29T03:31:18.854Z,15.34
2022-07-29T03:32:15.661Z,15.36
2022-07-29T03:33:17.316Z,15.38
2022-07-29T03:34:19.258Z,15.39
2022-07-29T03:35:20.845Z,15.39
2022-07-29T03:36:22.607Z,15.4
2022-07-29T03:37:24.350Z,15.41
2022-07-29T03:38:26.099Z,15.42
2022-07-29T03:39:27.622Z,15.44
2022-07-29T03:40:29.457Z,15.44
2022-07-29T03:41:31.240Z,15.44
2022-07-29T03:42:34.327Z,15.45
2022-07-29T03:43:34.677Z,15.45
2022-07-29T03:44:36.427Z,15.47
2022-07-29T03:45:38.184Z,15.48
2022-07-29T03:46:40.324Z,15.47
2022-07-29T03:47:50.242Z,15.49
2022-07-29T03:48:43.527Z,15.49
2022-07-29T03:49:45.014Z,15.49
2022-07-29T03:50:46.767Z,15.5
2022-07-29T03:51:48.340Z,15.51
2022-07-29T03:52:50.422Z,15.51
2022-07-29T03:53:52.088Z,15.52
2022-07-29T03:54:53.812Z,15.51
2022-07-29T03:55:55.583Z,15.52
2022-07-29T03:56:57.295Z,15.52
2022-07-29T03:57:59.094Z,15.53
2022-07-29T03:59:00.774Z,15.53
2022-07-29T04:00:02.604Z,15.54
2022-07-29T04:01:04.095Z,15.53
2022-07-29T04:02:06.133Z,15.53
2022-07-29T04:03:10.775Z,15.53
2022-07-29T04:04:09.748Z,15.52
2022-07-29T04:05:11.144Z,15.52
2022-07-29T04:06:17.742Z,15.51
2022-07-29T04:07:14.654Z,15.51
2022-07-29T04:08:16.287Z,15.51
2022-07-29T04:09:18.167Z,15.51
2022-07-29T04:10:30.668Z,15.5
2022-07-29T04:11:21.599Z,15.5
2022-07-29T04:12:23.348Z,15.5
2022-07-29T04:13:25.060Z,15.51
2022-07-29T04:14:26.623Z,15.51
2022-07-29T04:15:31.204Z,15.51
2022-07-29T04:16:30.316Z,15.52
2022-07-29T04:17:31.979Z,15.52
2022-07-29T04:18:33.674Z,15.53
2022-07-29T04:19:35.378Z,15.54
2022-07-29T04:20:37.088Z,15.54
2022-07-29T04:21:38.996Z,15.54
2022-07-29T04:22:40.873Z,15.54
2022-07-29T04:23:47.611Z,15.55
2022-07-29T04:24:44.497Z,15.55
2022-07-29T04:25:45.811Z,15.55
2022-07-29T04:26:47.573Z,15.56
2022-07-29T04:27:49.259Z,15.57
2022-07-29T04:28:50.865Z,15.59
2022-07-29T04:29:56.843Z,15.61
2022-07-29T04:30:54.624Z,15.64
2022-07-29T04:31:56.229Z,15.66
2022-07-29T04:32:57.884Z,15.69
2022-07-29T04:34:00.006Z,15.73
2022-07-29T04:35:01.457Z,15.76
2022-07-29T04:36:03.115Z,15.79
2022-07-29T04:37:04.991Z,15.82
2022-07-29T04:38:06.723Z,15.84
2022-07-29T04:39:08.346Z,15.86
2022-07-29T04:40:10.220Z,15.87
2022-07-29T04:41:16.685Z,15.89
2022-07-29T04:42:13.646Z,15.9
2022-07-29T04:43:15.590Z,15.9
2022-07-29T04:44:17.419Z,15.9
2022-07-29T04:45:22.594Z,15.9
2022-07-29T04:46:25.281Z,15.91
2022-07-29T04:47:22.092Z,15.9
2022-07-29T04:48:28.494Z,15.9
2022-07-29T04:49:25.888Z,15.88
2022-07-29T04:50:27.572Z,15.88
2022-07-29T04:51:29.083Z,15.88
2022-07-29T04:52:30.913Z,15.87
2022-07-29T04:53:32.603Z,15.86
2022-07-29T04:54:34.386Z,15.86
2022-07-29T04:55:36.272Z,15.86
2022-07-29T04:56:37.903Z,15.87
2022-07-29T04:57:40.179Z,15.88
2022-07-29T04:58:41.368Z,15.89
2022-07-29T04:59:43.004Z,15.89
2022-07-29T05:00:44.853Z,15.91
2022-07-29T05:01:46.546Z,15.93
2022-07-29T05:02:48.316Z,15.96
2022-07-29T05:03:49.973Z,16
2022-07-29T05:04:51.674Z,16.03
2022-07-29T05:05:53.498Z,16.06
2022-07-29T05:06:55.215Z,16.09
2022-07-29T05:07:56.937Z,16.12
2022-07-29T05:08:58.592Z,16.15
2022-07-29T05:10:00.367Z,16.2
2022-07-29T05:11:12.001Z,16.24
2022-07-29T05:12:03.737Z,16.28
2022-07-29T05:13:05.467Z,16.33
2022-07-29T05:14:07.375Z,16.38
2022-07-29T05:15:09.154Z,16.43
2022-07-29T05:16:25.995Z,16.47
2022-07-29T05:17:12.499Z,16.53
2022-07-29T05:18:14.278Z,16.58
2022-07-29T05:19:15.993Z,16.62
2022-07-29T05:20:17.664Z,16.67
2022-07-29T05:21:19.465Z,16.71
2022-07-29T05:22:21.247Z,16.75
2022-07-29T05:23:22.938Z,16.78
2022-07-29T05:24:24.661Z,16.82
2022-07-29T05:25:43.631Z,16.86
2022-07-29T05:26:28.160Z,16.89
2022-07-29T05:27:30.288Z,16.93
2022-07-29T05:28:31.640Z,16.97
2022-07-29T05:29:44.819Z,17.01
2022-07-29T05:30:35.223Z,17.04
2022-07-29T05:31:36.703Z,17.08
2022-07-29T05:32:38.673Z,17.12
2022-07-29T05:33:40.671Z,17.17
2022-07-29T05:34:50.095Z,17.21
2022-07-29T05:35:43.854Z,17.24
2022-07-29T05:36:45.484Z,17.28
2022-07-29T05:37:47.185Z,17.31
2022-07-29T05:38:48.831Z,17.39
2022-07-29T05:39:57.053Z,17.46
2022-07-29T05:40:52.456Z,17.51
2022-07-29T05:41:54.082Z,17.54
2022-07-29T05:42:55.903Z,17.61
2022-07-29T05:43:57.436Z,17.67
2022-07-29T05:44:59.357Z,17.73
2022-07-29T05:46:01.382Z,17.78
2022-07-29T05:47:02.845Z,17.83
2022-07-29T05:48:04.470Z,17.88
2022-07-29T05:49:06.262Z,17.92
2022-07-29T05:50:08.049Z,17.97
2022-07-29T05:51:24.604Z,18.01
2022-07-29T05:52:11.529Z,18.04
2022-07-29T05:53:19.921Z,18.08
2022-07-29T05:54:15.106Z,18.11
2022-07-29T05:55:16.536Z,18.14
2022-07-29T05:56:28.369Z,18.18
2022-07-29T05:57:20.023Z,18.22
2022-07-29T05:58:21.916Z,18.27
2022-07-29T05:59:28.312Z,18.3
2022-07-29T06:00:25.336Z,18.35
2022-07-29T06:01:31.953Z,18.4
2022-07-29T06:02:28.798Z,18.44
2022-07-29T06:03:30.603Z,18.51
2022-07-29T06:04:32.180Z,18.55
2022-07-29T06:05:33.909Z,18.59
2022-07-29T06:06:35.641Z,18.65
2022-07-29T06:07:37.518Z,18.73
2022-07-29T06:08:39.092Z,18.83
2022-07-29T06:09:40.903Z,18.91
2022-07-29T06:10:42.648Z,19.01
2022-07-29T06:11:44.330Z,19.12
2022-07-29T06:12:46.043Z,19.28
2022-07-29T06:13:47.848Z,19.41
2022-07-29T06:14:53.894Z,19.51
2022-07-29T06:15:51.393Z,19.69
2022-07-29T06:16:53.130Z,19.78
2022-07-29T06:17:59.922Z,19.89
2022-07-29T06:18:56.469Z,20
2022-07-29T06:19:58.219Z,20.01
2022-07-29T06:20:59.929Z,20.03
2022-07-29T06:22:01.770Z,20.07
2022-07-29T06:23:03.389Z,20.12
2022-07-29T06:24:04.998Z,20.16
2022-07-29T06:25:06.924Z,20.3
2022-07-29T06:27:10.710Z,20.42
2022-07-29T06:28:12.078Z,20.42
2022-07-29T06:29:13.675Z,20.48
2022-07-29T06:30:15.540Z,20.56
2022-07-29T06:31:32.245Z,20.6
2022-07-29T06:48:25.295Z,21.2
2022-07-29T06:49:37.121Z,21.25
2022-07-29T06:50:39.069Z,21.31
2022-07-29T06:51:40.273Z,21.35
2022-07-29T06:52:40.624Z,21.41
2022-07-29T06:56:05.055Z,21.55
2022-07-29T06:57:06.773Z,21.6
2022-07-29T06:58:08.454Z,21.64
2022-07-29T06:59:10.200Z,21.68
2022-07-29T07:00:11.926Z,21.71
2022-07-29T07:02:15.494Z,21.75
2022-07-29T07:03:17.130Z,21.8
2022-07-29T07:04:19.575Z,21.85
2022-07-29T07:05:20.649Z,21.89
2022-07-29T07:06:22.344Z,21.95
2022-07-29T07:07:24.170Z,22
2022-07-29T07:08:25.855Z,22.05
2022-07-29T07:09:39.860Z,22.1
2022-07-29T07:10:29.273Z,22.16
2022-07-29T07:11:31.021Z,22.23
2022-07-29T07:12:34.385Z,22.29
2022-07-29T07:13:34.673Z,22.35
2022-07-29T07:14:36.406Z,22.41
2022-07-29T07:15:38.958Z,22.48
2022-07-29T07:16:39.955Z,22.51
2022-07-29T07:17:43.068Z,22.56
2022-07-29T07:18:43.355Z,22.62
2022-07-29T07:19:45.082Z,22.66
2022-07-29T07:20:46.876Z,22.71
2022-07-29T07:21:48.571Z,22.73
2022-07-29T07:22:50.283Z,22.77
2022-07-29T07:23:52.008Z,22.81
2022-07-29T07:24:53.736Z,22.84
2022-07-29T07:25:55.517Z,22.86
2022-07-29T07:26:57.268Z,22.9
2022-07-29T07:27:58.954Z,22.93
2022-07-29T07:29:00.682Z,22.96
2022-07-29T07:30:02.555Z,22.99
2022-07-29T07:31:04.169Z,23.01
2022-07-29T07:32:05.924Z,23.05
2022-07-29T07:33:07.683Z,23.08
2022-07-29T07:34:09.354Z,23.13
2022-07-29T07:35:11.095Z,23.17
2022-07-29T07:36:19.959Z,23.18
2022-07-29T07:37:14.561Z,23.19
2022-07-29T07:38:16.300Z,23.23
2022-07-29T07:39:18.025Z,23.27
2022-07-29T07:40:19.849Z,23.31
2022-07-29T07:41:21.508Z,23.35
2022-07-29T07:42:23.301Z,23.38
2022-07-29T07:43:24.988Z,23.43
2022-07-29T07:44:26.793Z,23.46
2022-07-29T07:45:28.621Z,23.51
2022-07-29T07:46:30.168Z,23.55
2022-07-29T07:47:31.918Z,23.59
2022-07-29T07:48:33.885Z,23.62
2022-07-29T07:49:35.447Z,23.64
2022-07-29T07:50:37.117Z,23.66
2022-07-29T07:51:38.977Z,23.69
2022-07-29T07:52:40.732Z,23.72
2022-07-29T07:53:42.339Z,23.75
2022-07-29T07:54:44.141Z,23.77
2022-07-29T07:56:47.523Z,23.85
2022-07-29T07:57:49.259Z,23.89
2022-07-29T07:58:51.083Z,23.94
2022-07-29T07:59:52.839Z,23.99
2022-07-29T08:00:54.726Z,24.02
2022-07-29T08:01:56.779Z,23.99
2022-07-29T08:02:58.045Z,24.01
2022-07-29T08:03:59.985Z,24.01
2022-07-29T08:05:01.410Z,24
2022-07-29T08:06:03.275Z,24.02
2022-07-29T08:07:04.936Z,24.04
2022-07-29T08:08:06.652Z,24.07
2022-07-29T08:09:28.112Z,24.07
2022-07-29T08:10:10.344Z,24.1
2022-07-29T08:11:35.227Z,24.13
2022-07-29T08:12:13.615Z,24.17
2022-07-29T08:13:15.342Z,24.2
2022-07-29T08:14:17.338Z,24.24
2022-07-29T08:15:18.879Z,24.25
2022-07-29T08:16:25.856Z,24.29
2022-07-29T08:17:22.278Z,24.32
2022-07-29T08:18:24.015Z,24.34
2022-07-29T08:19:25.746Z,24.38
2022-07-29T08:20:27.555Z,24.39
2022-07-29T08:21:29.234Z,24.42
2022-07-29T08:22:31.050Z,24.43
2022-07-29T08:23:46.201Z,24.46
2022-07-29T08:24:34.484Z,24.51
2022-07-29T08:25:37.590Z,24.5
2022-07-29T08:26:37.967Z,24.51
2022-07-29T08:27:43.830Z,24.53
2022-07-29T08:28:41.475Z,24.52
2022-07-29T08:29:43.210Z,24.52
2022-07-29T08:31:03.689Z,24.48
2022-07-29T08:32:05.137Z,24.35
2022-07-29T08:33:06.860Z,24.45
2022-07-29T08:34:08.584Z,24.43
2022-07-29T08:35:10.183Z,24.38
2022-07-29T08:36:27.505Z,24.39
2022-07-29T08:37:28.879Z,24.38
2022-07-29T08:38:31.357Z,24.36
2022-07-29T08:39:32.980Z,24.4
2022-07-29T08:40:34.713Z,24.37
2022-07-29T08:41:36.445Z,24.38
2022-07-29T08:42:40.373Z,24.41
2022-07-29T08:43:42.741Z,24.4
2022-07-29T08:44:44.483Z,24.36
2022-07-29T08:45:47.731Z,24.4
2022-07-29T08:46:47.855Z,24.44
2022-07-29T08:47:49.741Z,24.48
2022-07-29T08:48:51.646Z,24.48
2022-07-29T08:49:53.065Z,24.52
2022-07-29T08:50:56.028Z,24.56
2022-07-29T08:51:56.852Z,24.6
2022-07-29T08:53:00.062Z,24.65
2022-07-29T08:54:00.071Z,24.66
2022-07-29T08:55:01.750Z,24.72
2022-07-29T08:56:03.482Z,24.7
2022-07-29T08:57:05.188Z,24.68
2022-07-29T08:58:06.934Z,24.7
2022-07-29T08:59:08.727Z,24.73
2022-07-29T09:00:11.467Z,24.75
2022-07-29T09:01:36.368Z,24.77
2022-07-29T09:02:14.110Z,24.79
2022-07-29T09:03:15.769Z,24.82
2022-07-29T09:04:17.455Z,24.86
2022-07-29T09:05:19.207Z,24.9
2022-07-29T09:06:31.907Z,24.93
2022-07-29T09:07:22.611Z,24.97
2022-07-29T09:08:24.296Z,25.03
2022-07-29T09:09:26.029Z,25.1
2022-07-29T09:10:27.847Z,25.12
2022-07-29T09:11:29.521Z,25.17
2022-07-29T09:12:36.101Z,25.22
2022-07-29T09:13:33.027Z,25.26
2022-07-29T09:14:34.717Z,25.31
2022-07-29T09:15:36.359Z,25.31
2022-07-29T09:16:52.697Z,25.33
2022-07-29T09:17:39.894Z,25.33
2022-07-29T09:18:41.722Z,25.29
2022-07-29T09:19:45.404Z,25.33
2022-07-29T09:20:45.124Z,25.31
2022-07-29T09:21:46.798Z,25.29
2022-07-29T09:22:48.664Z,25.29
2022-07-29T09:23:50.309Z,25.22
2022-07-29T09:24:52.065Z,25.16
2022-07-29T09:25:53.951Z,25.21
2022-07-29T09:26:56.063Z,25.23
2022-07-29T09:27:57.324Z,25.25
2022-07-29T09:28:59.098Z,25.27
2022-07-29T09:30:00.745Z,25.28
2022-07-29T09:31:02.617Z,25.3
2022-07-29T09:32:08.747Z,25.33
2022-07-29T09:33:11.069Z,25.35
2022-07-29T09:34:12.778Z,25.34
2022-07-29T09:35:14.540Z,25.34
2022-07-29T09:36:31.730Z,25.34
2022-07-29T09:37:17.881Z,25.32
2022-07-29T09:38:19.686Z,25.33
2022-07-29T09:39:22.107Z,25.31
2022-07-29T09:40:23.074Z,25.29
2022-07-29T09:41:24.880Z,25.28
2022-07-29T09:42:26.593Z,25.28
2022-07-29T09:43:28.344Z,25.25
2022-07-29T09:44:29.986Z,25.22
2022-07-29T09:45:31.724Z,25.23
2022-07-29T09:46:33.578Z,25.24
2022-07-29T09:47:35.273Z,25.24
2022-07-29T09:48:36.979Z,25.24
2022-07-29T09:49:38.668Z,25.24
2022-07-29T09:50:40.483Z,25.26
2022-07-29T09:51:42.165Z,25.25
2022-07-29T09:52:43.878Z,25.26
2022-07-29T09:53:45.612Z,25.3
2022-07-29T09:54:47.356Z,25.31
2022-07-29T09:55:49.105Z,25.3
2022-07-29T09:56:50.832Z,25.3
2022-07-29T09:57:52.549Z,25.27
2022-07-29T09:58:54.287Z,25.27
2022-07-29T09:59:56.021Z,25.3
2022-07-29T10:00:57.854Z,25.31
2022-07-29T10:01:59.637Z,25.34
2022-07-29T10:03:01.321Z,25.33
2022-07-29T10:04:02.975Z,25.33
2022-07-29T10:05:04.711Z,25.35
2022-07-29T10:06:06.770Z,25.37
2022-07-29T10:07:08.319Z,25.39
2022-07-29T10:08:09.902Z,25.41
2022-07-29T10:09:11.667Z,25.42
2022-07-29T10:10:13.402Z,25.46
2022-07-29T10:11:25.132Z,25.5
2022-07-29T10:12:16.852Z,25.52
2022-07-29T10:13:18.660Z,25.54
2022-07-29T10:14:20.381Z,25.56
2022-07-29T10:15:22.060Z,25.57
2022-07-29T10:16:28.994Z,25.6
2022-07-29T10:17:25.600Z,25.66
2022-07-29T10:18:27.332Z,25.74
2022-07-29T10:19:29.075Z,25.8
2022-07-29T10:20:30.724Z,25.87
2022-07-29T10:21:35.253Z,25.94
2022-07-29T10:22:52.621Z,26.01
2022-07-29T10:23:46.105Z,26.02
2022-07-29T10:24:37.691Z,26.04
2022-07-29T10:25:39.427Z,26.08
2022-07-29T10:26:41.297Z,26.12
2022-07-29T10:27:43.035Z,26.14
2022-07-29T10:28:44.610Z,26.18
2022-07-29T10:29:46.475Z,26.2
2022-07-29T10:30:48.079Z,26.22
2022-07-29T10:31:49.986Z,26.23
2022-07-29T10:32:54.259Z,26.29
2022-07-29T10:33:53.291Z,26.33
2022-07-29T10:34:55.052Z,26.32
2022-07-29T10:35:56.759Z,26.31
2022-07-29T10:36:58.510Z,26.31
2022-07-29T10:38:00.219Z,26.33
2022-07-29T10:39:03.337Z,26.33
2022-07-29T10:40:03.741Z,26.35
2022-07-29T10:41:20.944Z,26.4
2022-07-29T10:42:07.172Z,26.47
2022-07-29T10:43:08.916Z,26.54
2022-07-29T10:44:17.112Z,26.61
2022-07-29T10:45:12.450Z,26.61
2022-07-29T10:46:45.564Z,26.64
2022-07-29T10:47:15.858Z,26.73
2022-07-29T10:48:17.651Z,26.74
2022-07-29T10:49:19.387Z,26.78
2022-07-29T10:50:21.104Z,26.83
2022-07-29T10:51:29.910Z,26.86
2022-07-29T10:52:26.663Z,26.89
2022-07-29T10:53:26.304Z,26.92
2022-07-29T10:54:27.981Z,26.96
2022-07-29T10:55:29.796Z,27.02
2022-07-29T10:56:31.458Z,27.08
2022-07-29T10:57:54.534Z,27.12
2022-07-29T10:58:34.771Z,27.21
2022-07-29T10:59:36.665Z,27.25
2022-07-29T11:00:38.362Z,27.27
2022-07-29T11:01:40.030Z,27.32
2022-07-29T11:02:43.730Z,27.33
2022-07-29T11:03:50.728Z,27.37
2022-07-29T11:04:45.330Z,27.4
2022-07-29T11:05:47.163Z,27.43
2022-07-29T11:06:48.783Z,27.48
2022-07-29T11:07:50.991Z,27.53
2022-07-29T11:08:53.014Z,27.59
2022-07-29T11:09:53.947Z,27.64
2022-07-29T11:10:55.650Z,27.67
2022-07-29T11:11:57.701Z,27.72
2022-07-29T11:12:59.244Z,27.77
2022-07-29T11:14:00.918Z,27.79
2022-07-29T11:15:02.699Z,27.81
2022-07-29T11:16:04.392Z,27.82
2022-07-29T11:17:06.790Z,27.85
2022-07-29T11:18:07.852Z,27.89
2022-07-29T11:19:09.519Z,27.92
2022-07-29T11:20:11.559Z,27.9
2022-07-29T11:21:23.406Z,27.94
2022-07-29T11:22:16.605Z,27.99
2022-07-29T11:23:16.540Z,27.99
2022-07-29T11:24:18.738Z,28.03
2022-07-29T11:25:43.053Z,28.07
2022-07-29T11:26:23.414Z,28.1
2022-07-29T11:27:23.503Z,28.06
2022-07-29T11:28:25.554Z,28.13
2022-07-29T11:29:27.056Z,28.12
2022-07-29T11:30:28.722Z,28.05
2022-07-29T11:31:30.736Z,28.1
2022-07-29T11:32:32.393Z,28.12
2022-07-29T11:33:54.470Z,28.13
2022-07-29T11:34:35.627Z,28.16
2022-07-29T11:35:39.871Z,28.15
2022-07-29T11:36:39.086Z,28.15
2022-07-29T11:37:42.528Z,28.18
2022-07-29T11:38:42.489Z,28.18
2022-07-29T11:39:44.288Z,28.15
2022-07-29T11:40:46.024Z,28.15
2022-07-29T11:41:47.703Z,28.13
2022-07-29T11:42:50.197Z,28.09
2022-07-29T11:43:51.231Z,28.08
2022-07-29T11:44:53.107Z,28.04
2022-07-29T11:45:54.699Z,27.98
2022-07-29T11:46:56.380Z,27.96
2022-07-29T11:48:03.464Z,27.94
2022-07-29T11:48:59.879Z,27.94
2022-07-29T11:50:01.693Z,27.95
2022-07-29T11:51:03.413Z,27.94
2022-07-29T11:52:05.047Z,27.96
2022-07-29T11:53:08.924Z,27.97
2022-07-29T11:54:08.582Z,27.98
2022-07-29T11:55:10.440Z,28
2022-07-29T11:56:27.533Z,28.02
2022-07-29T11:57:13.671Z,28.05
2022-07-29T11:58:15.445Z,28.09
2022-07-29T11:59:17.733Z,28.12
2022-07-29T12:00:19.348Z,28.13
2022-07-29T12:01:21.066Z,28.18
2022-07-29T12:02:37.040Z,28.21
2022-07-29T12:03:35.400Z,28.23
2022-07-29T12:04:25.961Z,28.27
2022-07-29T12:05:36.900Z,28.3
2022-07-29T12:06:29.249Z,28.34
2022-07-29T12:07:34.915Z,28.39
2022-07-29T12:08:32.736Z,28.44
2022-07-29T12:09:40.409Z,28.51
2022-07-29T12:10:36.325Z,28.55
2022-07-29T12:11:38.090Z,28.59
2022-07-29T12:12:39.780Z,28.63
2022-07-29T12:13:41.546Z,28.64
2022-07-29T12:14:43.282Z,28.66
2022-07-29T12:15:46.827Z,28.68
2022-07-29T12:16:46.816Z,28.71
2022-07-29T12:17:48.497Z,28.71
2022-07-29T12:18:50.287Z,28.71
2022-07-29T12:19:52.008Z,28.72
2022-07-29T12:20:53.683Z,28.77
2022-07-29T12:21:56.828Z,28.65
2022-07-29T12:22:57.224Z,28.68
2022-07-29T12:24:05.739Z,28.7
2022-07-29T12:25:23.211Z,28.69
2022-07-29T12:26:02.710Z,28.68
2022-07-29T12:27:04.129Z,28.68
2022-07-29T12:28:05.861Z,28.68
2022-07-29T12:29:15.490Z,28.68
2022-07-29T12:30:09.588Z,28.7
2022-07-29T12:31:11.197Z,28.73
2022-07-29T12:32:14.698Z,28.76
2022-07-29T12:33:14.842Z,28.81
2022-07-29T12:34:16.301Z,28.87
2022-07-29T12:35:17.904Z,28.91
2022-07-29T12:36:19.685Z,28.96
2022-07-29T12:37:40.552Z,29
2022-07-29T12:38:23.079Z,29.06
2022-07-29T12:39:24.883Z,29.1
2022-07-29T12:40:26.624Z,29.14
2022-07-29T12:41:28.353Z,29.17
2022-07-29T12:42:30.137Z,29.15
2022-07-29T12:43:31.829Z,29.18
2022-07-29T12:44:33.579Z,29.19
2022-07-29T12:45:35.306Z,29.2
2022-07-29T12:46:37.207Z,29.21
2022-07-29T12:47:38.704Z,29.21
2022-07-29T12:48:40.668Z,29.24
2022-07-29T12:49:42.304Z,29.26
2022-07-29T12:50:43.982Z,29.28
2022-07-29T12:51:45.708Z,29.3
2022-07-29T12:52:47.444Z,29.33
2022-07-29T12:53:49.189Z,29.37
2022-07-29T12:54:50.938Z,29.4
2022-07-29T12:55:52.688Z,29.43
2022-07-29T12:56:54.381Z,29.45
2022-07-29T12:57:56.134Z,29.49
2022-07-29T12:58:57.809Z,29.52
2022-07-29T12:59:59.574Z,29.55
2022-07-29T13:01:01.748Z,29.56
2022-07-29T13:02:03.436Z,29.57
2022-07-29T13:03:05.027Z,29.57
2022-07-29T13:04:06.862Z,29.58
2022-07-29T13:05:08.357Z,29.61
2022-07-29T13:06:25.051Z,29.62
2022-07-29T13:07:11.893Z,29.58
2022-07-29T13:08:20.127Z,29.61
2022-07-29T13:09:15.195Z,29.64
2022-07-29T13:10:16.956Z,29.64
2022-07-29T13:11:18.753Z,29.67
2022-07-29T13:12:20.467Z,29.69
2022-07-29T13:13:22.241Z,29.71
2022-07-29T13:14:23.957Z,29.74
2022-07-29T13:15:25.808Z,29.76
2022-07-29T13:16:27.488Z,29.78
2022-07-29T13:17:32.772Z,29.77
2022-07-29T13:18:30.880Z,29.76
2022-07-29T13:19:32.757Z,29.76
2022-07-29T13:20:39.581Z,29.77
2022-07-29T13:21:41.090Z,29.78
2022-07-29T13:22:42.944Z,29.78
2022-07-29T13:23:44.631Z,29.78
2022-07-29T13:24:46.473Z,29.77
2022-07-29T13:25:48.078Z,29.78
2022-07-29T13:26:49.802Z,29.78
2022-07-29T13:27:51.606Z,29.76
2022-07-29T13:28:53.224Z,29.73
2022-07-29T13:29:55.022Z,29.73
2022-07-29T13:30:57.033Z,29.56
2022-07-29T13:31:59.102Z,29.57
2022-07-29T13:33:00.867Z,29.38
2022-07-29T13:34:02.531Z,29.41
2022-07-29T13:35:05.507Z,29.37
2022-07-29T13:36:05.456Z,29.33
2022-07-29T13:37:07.176Z,29.3
2022-07-29T13:38:08.965Z,29.29
2022-07-29T13:39:10.559Z,29.3
2022-07-29T13:40:12.483Z,29.32
2022-07-29T13:41:14.105Z,29.32